sensor_id;sensor_type;location;lat;lon;timestamp;P1;durP1;ratioP1;P2;durP2;ratioP2
60203;SDS011;46068;52.132;4.618;2023-08-08T00:02:22;10.02;;;2.67;;
60203;SDS011;46068;52.132;4.618;2023-08-08T00:04:48;7.57;;;2.05;;
60203;SDS011;46068;52.132;4.618;2023-08-08T00:07:15;9.55;;;2.35;;
60203;SDS011;46068;52.132;4.618;2023-08-08T00:09:41;9.07;;;2.50;;
60203;SDS011;46068;52.132;4.618;2023-08-08T00:12:07;7.65;;;2.42;;
60203;SDS011;46068;52.132;4.618;2023-08-08T00:14:35;12.77;;;2.42;;
60203;SDS011;46068;52.132;4.618;2023-08-08T00:17:01;7.85;;;2.20;;
60203;SDS011;46068;52.132;4.618;2023-08-08T00:19:28;7.93;;;1.92;;
60203;SDS011;46068;52.132;4.618;2023-08-08T00:21:54;9.05;;;2.00;;
60203;SDS011;46068;52.132;4.618;2023-08-08T00:24:20;6.20;;;1.70;;
60203;SDS011;46068;52.132;4.618;2023-08-08T00:26:46;9.70;;;1.98;;
60203;SDS011;46068;52.132;4.618;2023-08-08T00:29:13;3.58;;;1.52;;
60203;SDS011;46068;52.132;4.618;2023-08-08T00:31:40;5.07;;;1.48;;
60203;SDS011;46068;52.132;4.618;2023-08-08T00:34:07;2.72;;;1.27;;
60203;SDS011;46068;52.132;4.618;2023-08-08T00:36:33;5.40;;;1.42;;
60203;SDS011;46068;52.132;4.618;2023-08-08T00:38:59;7.43;;;1.45;;
60203;SDS011;46068;52.132;4.618;2023-08-08T00:41:25;3.42;;;1.45;;
60203;SDS011;46068;52.132;4.618;2023-08-08T00:43:52;3.50;;;1.40;;
60203;SDS011;46068;52.132;4.618;2023-08-08T00:46:18;5.88;;;1.42;;
60203;SDS011;46068;52.132;4.618;2023-08-08T00:48:48;6.35;;;1.70;;
60203;SDS011;46068;52.132;4.618;2023-08-08T00:51:14;6.72;;;1.38;;
60203;SDS011;46068;52.132;4.618;2023-08-08T00:53:42;4.63;;;1.52;;
60203;SDS011;46068;52.132;4.618;2023-08-08T00:56:08;3.58;;;1.23;;
60203;SDS011;46068;52.132;4.618;2023-08-08T00:58:35;2.85;;;1.10;;
60203;SDS011;46068;52.132;4.618;2023-08-08T01:01:01;3.25;;;1.30;;
60203;SDS011;46068;52.132;4.618;2023-08-08T01:03:28;2.30;;;1.20;;
60203;SDS011;46068;52.132;4.618;2023-08-08T01:05:58;6.38;;;1.65;;
60203;SDS011;46068;52.132;4.618;2023-08-08T01:08:26;5.30;;;1.10;;
60203;SDS011;46068;52.132;4.618;2023-08-08T01:10:53;2.70;;;1.30;;
60203;SDS011;46068;52.132;4.618;2023-08-08T01:13:20;4.65;;;1.33;;
60203;SDS011;46068;52.132;4.618;2023-08-08T01:15:48;6.45;;;1.50;;
60203;SDS011;46068;52.132;4.618;2023-08-08T01:18:15;6.57;;;1.10;;
60203;SDS011;46068;52.132;4.618;2023-08-08T01:20:42;7.50;;;1.30;;
60203;SDS011;46068;52.132;4.618;2023-08-08T01:23:11;6.78;;;1.10;;
60203;SDS011;46068;52.132;4.618;2023-08-08T01:25:39;3.58;;;1.17;;
60203;SDS011;46068;52.132;4.618;2023-08-08T01:28:07;4.35;;;1.10;;
60203;SDS011;46068;52.132;4.618;2023-08-08T01:30:33;3.60;;;1.30;;
60203;SDS011;46068;52.132;4.618;2023-08-08T01:32:59;3.03;;;1.30;;
60203;SDS011;46068;52.132;4.618;2023-08-08T01:35:27;4.45;;;1.30;;
60203;SDS011;46068;52.132;4.618;2023-08-08T01:37:56;4.05;;;1.25;;
60203;SDS011;46068;52.132;4.618;2023-08-08T01:40:26;2.40;;;1.08;;
60203;SDS011;46068;52.132;4.618;2023-08-08T01:42:55;2.72;;;0.90;;
60203;SDS011;46068;52.132;4.618;2023-08-08T01:45:22;4.40;;;1.10;;
60203;SDS011;46068;52.132;4.618;2023-08-08T01:47:50;7.75;;;1.30;;
60203;SDS011;46068;52.132;4.618;2023-08-08T01:50:16;4.70;;;1.40;;
60203;SDS011;46068;52.132;4.618;2023-08-08T01:52:42;6.35;;;1.33;;
60203;SDS011;46068;52.132;4.618;2023-08-08T01:55:09;5.22;;;1.23;;
60203;SDS011;46068;52.132;4.618;2023-08-08T01:57:35;4.15;;;1.45;;
60203;SDS011;46068;52.132;4.618;2023-08-08T02:00:04;3.80;;;1.13;;
60203;SDS011;46068;52.132;4.618;2023-08-08T02:02:30;5.57;;;1.20;;
60203;SDS011;46068;52.132;4.618;2023-08-08T02:04:57;5.57;;;1.17;;
60203;SDS011;46068;52.132;4.618;2023-08-08T02:07:23;4.43;;;1.30;;
60203;SDS011;46068;52.132;4.618;2023-08-08T02:09:49;7.28;;;1.42;;
60203;SDS011;46068;52.132;4.618;2023-08-08T02:12:16;5.57;;;1.35;;
60203;SDS011;46068;52.132;4.618;2023-08-08T02:14:42;10.65;;;2.10;;
60203;SDS011;46068;52.132;4.618;2023-08-08T02:17:10;7.68;;;1.20;;
60203;SDS011;46068;52.132;4.618;2023-08-08T02:19:36;4.05;;;1.20;;
60203;SDS011;46068;52.132;4.618;2023-08-08T02:22:03;2.97;;;1.10;;
60203;SDS011;46068;52.132;4.618;2023-08-08T02:24:29;4.63;;;0.98;;
60203;SDS011;46068;52.132;4.618;2023-08-08T02:26:56;2.50;;;1.05;;
60203;SDS011;46068;52.132;4.618;2023-08-08T02:29:24;2.63;;;0.98;;
60203;SDS011;46068;52.132;4.618;2023-08-08T02:31:51;4.05;;;1.00;;
60203;SDS011;46068;52.132;4.618;2023-08-08T02:34:18;2.38;;;0.95;;
60203;SDS011;46068;52.132;4.618;2023-08-08T02:36:44;5.88;;;1.05;;
60203;SDS011;46068;52.132;4.618;2023-08-08T02:39:11;3.05;;;1.20;;
60203;SDS011;46068;52.132;4.618;2023-08-08T02:41:37;2.92;;;0.95;;
60203;SDS011;46068;52.132;4.618;2023-08-08T02:44:03;4.82;;;0.88;;
60203;SDS011;46068;52.132;4.618;2023-08-08T02:46:29;3.50;;;1.00;;
60203;SDS011;46068;52.132;4.618;2023-08-08T02:48:56;3.97;;;1.10;;
60203;SDS011;46068;52.132;4.618;2023-08-08T02:51:23;7.75;;;1.35;;
60203;SDS011;46068;52.132;4.618;2023-08-08T02:53:50;4.57;;;0.90;;
60203;SDS011;46068;52.132;4.618;2023-08-08T02:56:16;4.75;;;1.17;;
60203;SDS011;46068;52.132;4.618;2023-08-08T02:58:42;5.57;;;1.23;;
60203;SDS011;46068;52.132;4.618;2023-08-08T03:01:08;4.90;;;1.10;;
60203;SDS011;46068;52.132;4.618;2023-08-08T03:03:35;4.00;;;0.82;;
60203;SDS011;46068;52.132;4.618;2023-08-08T03:06:01;3.10;;;0.80;;
60203;SDS011;46068;52.132;4.618;2023-08-08T03:08:29;8.50;;;1.23;;
60203;SDS011;46068;52.132;4.618;2023-08-08T03:10:55;4.72;;;0.90;;
60203;SDS011;46068;52.132;4.618;2023-08-08T03:13:21;7.90;;;1.20;;
60203;SDS011;46068;52.132;4.618;2023-08-08T03:15:48;5.45;;;0.90;;
60203;SDS011;46068;52.132;4.618;2023-08-08T03:18:14;4.72;;;1.10;;
60203;SDS011;46068;52.132;4.618;2023-08-08T03:20:41;3.15;;;1.00;;
60203;SDS011;46068;52.132;4.618;2023-08-08T03:23:07;3.80;;;1.10;;
60203;SDS011;46068;52.132;4.618;2023-08-08T03:25:35;5.80;;;1.00;;
60203;SDS011;46068;52.132;4.618;2023-08-08T03:28:01;4.70;;;1.02;;
60203;SDS011;46068;52.132;4.618;2023-08-08T03:30:28;2.22;;;1.10;;
60203;SDS011;46068;52.132;4.618;2023-08-08T03:32:54;4.78;;;0.85;;
60203;SDS011;46068;52.132;4.618;2023-08-08T03:35:20;3.42;;;1.10;;
60203;SDS011;46068;52.132;4.618;2023-08-08T03:37:47;3.08;;;1.17;;
60203;SDS011;46068;52.132;4.618;2023-08-08T03:40:13;4.60;;;0.80;;
60203;SDS011;46068;52.132;4.618;2023-08-08T03:42:41;6.78;;;0.90;;
60203;SDS011;46068;52.132;4.618;2023-08-08T03:45:08;4.78;;;1.20;;
60203;SDS011;46068;52.132;4.618;2023-08-08T03:47:34;6.85;;;1.10;;
60203;SDS011;46068;52.132;4.618;2023-08-08T03:50:00;3.47;;;1.13;;
60203;SDS011;46068;52.132;4.618;2023-08-08T03:52:27;4.13;;;1.00;;
60203;SDS011;46068;52.132;4.618;2023-08-08T03:54:53;5.93;;;0.90;;
60203;SDS011;46068;52.132;4.618;2023-08-08T03:57:19;5.78;;;0.77;;
60203;SDS011;46068;52.132;4.618;2023-08-08T03:59:47;5.97;;;1.15;;
60203;SDS011;46068;52.132;4.618;2023-08-08T04:02:13;3.45;;;0.90;;
60203;SDS011;46068;52.132;4.618;2023-08-08T04:04:39;5.43;;;1.20;;
60203;SDS011;46068;52.132;4.618;2023-08-08T04:07:06;4.35;;;0.93;;
60203;SDS011;46068;52.132;4.618;2023-08-08T04:09:32;5.28;;;1.00;;
60203;SDS011;46068;52.132;4.618;2023-08-08T04:11:58;1.15;;;0.63;;
60203;SDS011;46068;52.132;4.618;2023-08-08T04:14:25;4.13;;;0.85;;
60203;SDS011;46068;52.132;4.618;2023-08-08T04:16:52;5.95;;;1.05;;
60203;SDS011;46068;52.132;4.618;2023-08-08T04:19:19;2.40;;;1.10;;
60203;SDS011;46068;52.132;4.618;2023-08-08T04:21:45;2.85;;;0.82;;
60203;SDS011;46068;52.132;4.618;2023-08-08T04:24:11;2.13;;;0.90;;
60203;SDS011;46068;52.132;4.618;2023-08-08T04:26:38;2.28;;;0.77;;
60203;SDS011;46068;52.132;4.618;2023-08-08T04:29:04;4.43;;;0.80;;
60203;SDS011;46068;52.132;4.618;2023-08-08T04:31:31;5.93;;;0.90;;
60203;SDS011;46068;52.132;4.618;2023-08-08T04:33:59;3.75;;;1.13;;
60203;SDS011;46068;52.132;4.618;2023-08-08T04:36:26;3.38;;;0.70;;
60203;SDS011;46068;52.132;4.618;2023-08-08T04:38:52;4.95;;;1.00;;
60203;SDS011;46068;52.132;4.618;2023-08-08T04:41:18;3.70;;;0.80;;
60203;SDS011;46068;52.132;4.618;2023-08-08T04:43:44;6.43;;;1.10;;
60203;SDS011;46068;52.132;4.618;2023-08-08T04:46:11;5.45;;;1.00;;
60203;SDS011;46068;52.132;4.618;2023-08-08T04:48:37;6.68;;;1.00;;
60203;SDS011;46068;52.132;4.618;2023-08-08T04:51:05;4.88;;;1.00;;
60203;SDS011;46068;52.132;4.618;2023-08-08T04:53:31;4.00;;;0.98;;
60203;SDS011;46068;52.132;4.618;2023-08-08T04:55:58;3.95;;;0.90;;
60203;SDS011;46068;52.132;4.618;2023-08-08T04:58:24;3.58;;;0.90;;
60203;SDS011;46068;52.132;4.618;2023-08-08T05:00:50;4.63;;;1.10;;
60203;SDS011;46068;52.132;4.618;2023-08-08T05:03:16;2.92;;;0.70;;
60203;SDS011;46068;52.132;4.618;2023-08-08T05:05:43;4.35;;;0.80;;
60203;SDS011;46068;52.132;4.618;2023-08-08T05:08:11;2.40;;;0.80;;
60203;SDS011;46068;52.132;4.618;2023-08-08T05:10:38;4.38;;;0.98;;
60203;SDS011;46068;52.132;4.618;2023-08-08T05:13:04;5.25;;;0.95;;
60203;SDS011;46068;52.132;4.618;2023-08-08T05:15:30;3.15;;;0.93;;
60203;SDS011;46068;52.132;4.618;2023-08-08T05:17:56;4.70;;;1.10;;
60203;SDS011;46068;52.132;4.618;2023-08-08T05:20:24;5.40;;;1.17;;
60203;SDS011;46068;52.132;4.618;2023-08-08T05:22:51;3.60;;;0.90;;
60203;SDS011;46068;52.132;4.618;2023-08-08T05:25:18;5.53;;;0.70;;
60203;SDS011;46068;52.132;4.618;2023-08-08T05:27:45;2.55;;;0.75;;
60203;SDS011;46068;52.132;4.618;2023-08-08T05:30:12;1.77;;;0.70;;
60203;SDS011;46068;52.132;4.618;2023-08-08T05:32:38;5.85;;;0.98;;
60203;SDS011;46068;52.132;4.618;2023-08-08T05:35:05;3.15;;;0.82;;
60203;SDS011;46068;52.132;4.618;2023-08-08T05:37:31;4.20;;;0.93;;
60203;SDS011;46068;52.132;4.618;2023-08-08T05:39:58;3.88;;;0.70;;
60203;SDS011;46068;52.132;4.618;2023-08-08T05:42:25;3.42;;;0.68;;
60203;SDS011;46068;52.132;4.618;2023-08-08T05:44:52;2.95;;;0.60;;
60203;SDS011;46068;52.132;4.618;2023-08-08T05:47:18;2.72;;;0.85;;
60203;SDS011;46068;52.132;4.618;2023-08-08T05:49:44;2.60;;;0.77;;
60203;SDS011;46068;52.132;4.618;2023-08-08T05:52:10;4.80;;;0.70;;
60203;SDS011;46068;52.132;4.618;2023-08-08T05:54:37;1.77;;;0.77;;
60203;SDS011;46068;52.132;4.618;2023-08-08T05:57:03;2.67;;;0.73;;
60203;SDS011;46068;52.132;4.618;2023-08-08T05:59:31;5.55;;;0.75;;
60203;SDS011;46068;52.132;4.618;2023-08-08T06:01:57;1.98;;;0.68;;
60203;SDS011;46068;52.132;4.618;2023-08-08T06:04:24;2.83;;;0.68;;
60203;SDS011;46068;52.132;4.618;2023-08-08T06:06:51;3.97;;;0.73;;
60203;SDS011;46068;52.132;4.618;2023-08-08T06:09:17;4.95;;;0.80;;
60203;SDS011;46068;52.132;4.618;2023-08-08T06:11:44;3.05;;;0.70;;
60203;SDS011;46068;52.132;4.618;2023-08-08T06:14:10;3.33;;;0.73;;
60203;SDS011;46068;52.132;4.618;2023-08-08T06:16:38;5.78;;;0.80;;
60203;SDS011;46068;52.132;4.618;2023-08-08T06:19:04;3.50;;;0.73;;
60203;SDS011;46068;52.132;4.618;2023-08-08T06:21:31;4.40;;;0.65;;
60203;SDS011;46068;52.132;4.618;2023-08-08T06:23:57;4.78;;;0.82;;
60203;SDS011;46068;52.132;4.618;2023-08-08T06:26:23;2.70;;;0.68;;
60203;SDS011;46068;52.132;4.618;2023-08-08T06:28:50;3.60;;;0.70;;
60203;SDS011;46068;52.132;4.618;2023-08-08T06:31:17;2.00;;;0.80;;
60203;SDS011;46068;52.132;4.618;2023-08-08T06:33:45;5.28;;;0.70;;
60203;SDS011;46068;52.132;4.618;2023-08-08T06:36:11;2.65;;;0.57;;
60203;SDS011;46068;52.132;4.618;2023-08-08T06:38:37;2.85;;;0.60;;
60203;SDS011;46068;52.132;4.618;2023-08-08T06:41:04;4.35;;;0.95;;
60203;SDS011;46068;52.132;4.618;2023-08-08T06:43:30;2.47;;;0.40;;
60203;SDS011;46068;52.132;4.618;2023-08-08T06:45:57;4.70;;;0.80;;
60203;SDS011;46068;52.132;4.618;2023-08-08T06:48:23;5.43;;;0.77;;
60203;SDS011;46068;52.132;4.618;2023-08-08T06:50:51;3.28;;;0.60;;
60203;SDS011;46068;52.132;4.618;2023-08-08T06:53:17;3.45;;;0.60;;
60203;SDS011;46068;52.132;4.618;2023-08-08T06:55:43;3.63;;;0.63;;
60203;SDS011;46068;52.132;4.618;2023-08-08T06:58:10;2.80;;;0.50;;
60203;SDS011;46068;52.132;4.618;2023-08-08T07:00:36;2.85;;;0.60;;
60203;SDS011;46068;52.132;4.618;2023-08-08T07:03:02;4.57;;;0.60;;
60203;SDS011;46068;52.132;4.618;2023-08-08T07:05:28;4.95;;;0.85;;
60203;SDS011;46068;52.132;4.618;2023-08-08T07:07:56;3.55;;;0.50;;
60203;SDS011;46068;52.132;4.618;2023-08-08T07:10:23;4.15;;;0.68;;
60203;SDS011;46068;52.132;4.618;2023-08-08T07:12:49;2.90;;;0.70;;
60203;SDS011;46068;52.132;4.618;2023-08-08T07:15:15;3.08;;;0.57;;
60203;SDS011;46068;52.132;4.618;2023-08-08T07:17:42;1.33;;;0.40;;
60203;SDS011;46068;52.132;4.618;2023-08-08T07:20:08;2.20;;;0.65;;
60203;SDS011;46068;52.132;4.618;2023-08-08T07:22:38;4.60;;;0.73;;
60203;SDS011;46068;52.132;4.618;2023-08-08T07:25:06;6.15;;;0.70;;
60203;SDS011;46068;52.132;4.618;2023-08-08T07:27:33;4.40;;;0.50;;
60203;SDS011;46068;52.132;4.618;2023-08-08T07:29:59;0.85;;;0.30;;
60203;SDS011;46068;52.132;4.618;2023-08-08T07:32:27;1.65;;;0.50;;
60203;SDS011;46068;52.132;4.618;2023-08-08T07:34:53;2.40;;;0.40;;
60203;SDS011;46068;52.132;4.618;2023-08-08T07:37:20;3.50;;;0.40;;
60203;SDS011;46068;52.132;4.618;2023-08-08T07:39:49;3.22;;;0.50;;
60203;SDS011;46068;52.132;4.618;2023-08-08T07:42:17;3.13;;;0.63;;
60203;SDS011;46068;52.132;4.618;2023-08-08T07:44:43;2.45;;;0.47;;
60203;SDS011;46068;52.132;4.618;2023-08-08T07:47:09;3.90;;;0.40;;
60203;SDS011;46068;52.132;4.618;2023-08-08T07:49:36;3.60;;;0.57;;
60203;SDS011;46068;52.132;4.618;2023-08-08T07:52:02;1.90;;;0.50;;
60203;SDS011;46068;52.132;4.618;2023-08-08T07:54:28;2.22;;;0.40;;
60203;SDS011;46068;52.132;4.618;2023-08-08T07:56:55;3.53;;;0.60;;
60203;SDS011;46068;52.132;4.618;2023-08-08T07:59:22;1.60;;;0.52;;
60203;SDS011;46068;52.132;4.618;2023-08-08T08:01:49;2.85;;;0.57;;
60203;SDS011;46068;52.132;4.618;2023-08-08T08:04:15;1.83;;;0.50;;
60203;SDS011;46068;52.132;4.618;2023-08-08T08:06:41;3.70;;;0.70;;
60203;SDS011;46068;52.132;4.618;2023-08-08T08:09:08;2.13;;;0.70;;
60203;SDS011;46068;52.132;4.618;2023-08-08T08:11:34;2.55;;;0.40;;
60203;SDS011;46068;52.132;4.618;2023-08-08T08:14:00;2.90;;;0.60;;
60203;SDS011;46068;52.132;4.618;2023-08-08T08:16:28;4.38;;;0.47;;
60203;SDS011;46068;52.132;4.618;2023-08-08T08:18:54;3.80;;;0.80;;
60203;SDS011;46068;52.132;4.618;2023-08-08T08:21:21;5.53;;;0.60;;
60203;SDS011;46068;52.132;4.618;2023-08-08T08:23:47;1.13;;;0.40;;
60203;SDS011;46068;52.132;4.618;2023-08-08T08:26:13;3.47;;;0.60;;
60203;SDS011;46068;52.132;4.618;2023-08-08T08:28:40;4.18;;;0.68;;
60203;SDS011;46068;52.132;4.618;2023-08-08T08:31:06;2.05;;;0.60;;
60203;SDS011;46068;52.132;4.618;2023-08-08T08:33:34;3.85;;;0.80;;
60203;SDS011;46068;52.132;4.618;2023-08-08T08:36:00;2.03;;;0.50;;
60203;SDS011;46068;52.132;4.618;2023-08-08T08:38:27;3.17;;;0.70;;
60203;SDS011;46068;52.132;4.618;2023-08-08T08:40:53;1.50;;;0.60;;
60203;SDS011;46068;52.132;4.618;2023-08-08T08:43:20;3.28;;;0.50;;
60203;SDS011;46068;52.132;4.618;2023-08-08T08:45:48;1.48;;;0.57;;
60203;SDS011;46068;52.132;4.618;2023-08-08T08:48:16;1.95;;;0.70;;
60203;SDS011;46068;52.132;4.618;2023-08-08T08:50:45;2.88;;;0.65;;
60203;SDS011;46068;52.132;4.618;2023-08-08T08:53:13;1.33;;;0.50;;
60203;SDS011;46068;52.132;4.618;2023-08-08T08:55:40;1.35;;;0.65;;
60203;SDS011;46068;52.132;4.618;2023-08-08T08:58:06;1.77;;;0.60;;
60203;SDS011;46068;52.132;4.618;2023-08-08T09:00:34;1.48;;;0.57;;
60203;SDS011;46068;52.132;4.618;2023-08-08T09:03:01;1.02;;;0.40;;
60203;SDS011;46068;52.132;4.618;2023-08-08T09:05:27;2.22;;;0.70;;
60203;SDS011;46068;52.132;4.618;2023-08-08T09:07:55;2.83;;;0.60;;
60203;SDS011;46068;52.132;4.618;2023-08-08T09:10:21;1.67;;;0.70;;
60203;SDS011;46068;52.132;4.618;2023-08-08T09:12:50;7.03;;;0.80;;
60203;SDS011;46068;52.132;4.618;2023-08-08T09:15:16;1.65;;;0.63;;
60203;SDS011;46068;52.132;4.618;2023-08-08T09:17:43;1.65;;;0.80;;
60203;SDS011;46068;52.132;4.618;2023-08-08T09:20:11;4.00;;;0.88;;
60203;SDS011;46068;52.132;4.618;2023-08-08T09:22:38;2.70;;;0.40;;
60203;SDS011;46068;52.132;4.618;2023-08-08T09:25:07;1.38;;;0.70;;
60203;SDS011;46068;52.132;4.618;2023-08-08T09:27:34;0.68;;;0.40;;
60203;SDS011;46068;52.132;4.618;2023-08-08T09:30:00;0.85;;;0.50;;
60203;SDS011;46068;52.132;4.618;2023-08-08T09:32:28;2.75;;;0.52;;
60203;SDS011;46068;52.132;4.618;2023-08-08T09:34:55;1.27;;;0.60;;
60203;SDS011;46068;52.132;4.618;2023-08-08T09:37:21;1.48;;;0.50;;
60203;SDS011;46068;52.132;4.618;2023-08-08T09:39:55;3.03;;;0.60;;
60203;SDS011;46068;52.132;4.618;2023-08-08T09:42:22;3.10;;;0.43;;
60203;SDS011;46068;52.132;4.618;2023-08-08T09:44:50;2.45;;;0.55;;
60203;SDS011;46068;52.132;4.618;2023-08-08T09:47:16;1.85;;;0.50;;
60203;SDS011;46068;52.132;4.618;2023-08-08T09:49:42;1.88;;;0.70;;
60203;SDS011;46068;52.132;4.618;2023-08-08T09:52:09;3.65;;;0.50;;
60203;SDS011;46068;52.132;4.618;2023-08-08T09:54:36;3.58;;;0.90;;
60203;SDS011;46068;52.132;4.618;2023-08-08T09:57:03;1.30;;;0.50;;
60203;SDS011;46068;52.132;4.618;2023-08-08T09:59:31;3.63;;;0.50;;
60203;SDS011;46068;52.132;4.618;2023-08-08T10:01:57;1.92;;;0.50;;
60203;SDS011;46068;52.132;4.618;2023-08-08T10:04:24;3.22;;;0.60;;
60203;SDS011;46068;52.132;4.618;2023-08-08T10:06:50;1.83;;;0.50;;
60203;SDS011;46068;52.132;4.618;2023-08-08T10:09:17;1.77;;;0.45;;
60203;SDS011;46068;52.132;4.618;2023-08-08T10:11:43;3.05;;;0.40;;
60203;SDS011;46068;52.132;4.618;2023-08-08T10:14:10;1.58;;;0.50;;
60203;SDS011;46068;52.132;4.618;2023-08-08T10:16:39;2.28;;;0.45;;
60203;SDS011;46068;52.132;4.618;2023-08-08T10:19:08;3.25;;;0.68;;
60203;SDS011;46068;52.132;4.618;2023-08-08T10:21:34;1.83;;;0.73;;
60203;SDS011;46068;52.132;4.618;2023-08-08T10:24:02;3.72;;;0.60;;
60203;SDS011;46068;52.132;4.618;2023-08-08T10:26:28;1.95;;;0.60;;
60203;SDS011;46068;52.132;4.618;2023-08-08T10:28:55;2.85;;;0.70;;
60203;SDS011;46068;52.132;4.618;2023-08-08T10:31:22;1.73;;;0.77;;
60203;SDS011;46068;52.132;4.618;2023-08-08T10:33:49;3.15;;;0.65;;
60203;SDS011;46068;52.132;4.618;2023-08-08T10:36:26;4.20;;;0.88;;
60203;SDS011;46068;52.132;4.618;2023-08-08T10:38:52;4.45;;;0.70;;
60203;SDS011;46068;52.132;4.618;2023-08-08T10:41:20;4.43;;;0.90;;
60203;SDS011;46068;52.132;4.618;2023-08-08T10:43:48;2.25;;;0.70;;
60203;SDS011;46068;52.132;4.618;2023-08-08T10:46:14;2.08;;;0.80;;
60203;SDS011;46068;52.132;4.618;2023-08-08T10:48:50;4.03;;;0.80;;
60203;SDS011;46068;52.132;4.618;2023-08-08T10:51:16;2.70;;;0.70;;
60203;SDS011;46068;52.132;4.618;2023-08-08T10:53:43;3.30;;;0.50;;
60203;SDS011;46068;52.132;4.618;2023-08-08T10:56:11;1.95;;;0.40;;
60203;SDS011;46068;52.132;4.618;2023-08-08T10:58:39;3.70;;;0.60;;
60203;SDS011;46068;52.132;4.618;2023-08-08T11:01:05;1.83;;;0.38;;
60203;SDS011;46068;52.132;4.618;2023-08-08T11:03:33;2.75;;;0.40;;
60203;SDS011;46068;52.132;4.618;2023-08-08T11:06:01;1.05;;;0.35;;
60203;SDS011;46068;52.132;4.618;2023-08-08T11:08:29;2.15;;;0.70;;
60203;SDS011;46068;52.132;4.618;2023-08-08T11:10:55;2.22;;;0.60;;
60203;SDS011;46068;52.132;4.618;2023-08-08T11:13:21;2.20;;;0.50;;
60203;SDS011;46068;52.132;4.618;2023-08-08T11:15:48;3.33;;;0.70;;
60203;SDS011;46068;52.132;4.618;2023-08-08T11:18:15;2.30;;;0.60;;
60203;SDS011;46068;52.132;4.618;2023-08-08T11:20:42;1.15;;;0.50;;
60203;SDS011;46068;52.132;4.618;2023-08-08T11:23:09;2.90;;;0.70;;
60203;SDS011;46068;52.132;4.618;2023-08-08T11:25:39;2.72;;;0.65;;
60203;SDS011;46068;52.132;4.618;2023-08-08T11:28:06;1.70;;;0.63;;
60203;SDS011;46068;52.132;4.618;2023-08-08T11:30:33;2.08;;;0.80;;
60203;SDS011;46068;52.132;4.618;2023-08-08T11:33:00;1.88;;;0.68;;
60203;SDS011;46068;52.132;4.618;2023-08-08T11:35:26;1.63;;;0.50;;
60203;SDS011;46068;52.132;4.618;2023-08-08T11:37:53;3.25;;;0.70;;
60203;SDS011;46068;52.132;4.618;2023-08-08T11:40:22;6.13;;;0.77;;
60203;SDS011;46068;52.132;4.618;2023-08-08T11:42:48;2.22;;;0.50;;
60203;SDS011;46068;52.132;4.618;2023-08-08T11:45:16;2.22;;;0.50;;
60203;SDS011;46068;52.132;4.618;2023-08-08T11:47:43;1.83;;;0.40;;
60203;SDS011;46068;52.132;4.618;2023-08-08T11:50:10;1.95;;;0.55;;
60203;SDS011;46068;52.132;4.618;2023-08-08T11:52:39;1.30;;;0.57;;
60203;SDS011;46068;52.132;4.618;2023-08-08T11:55:06;2.20;;;0.68;;
60203;SDS011;46068;52.132;4.618;2023-08-08T11:57:34;6.47;;;0.82;;
60203;SDS011;46068;52.132;4.618;2023-08-08T12:00:02;5.53;;;0.70;;
60203;SDS011;46068;52.132;4.618;2023-08-08T12:02:29;3.35;;;0.70;;
60203;SDS011;46068;52.132;4.618;2023-08-08T12:04:55;2.30;;;0.80;;
60203;SDS011;46068;52.132;4.618;2023-08-08T12:07:21;2.85;;;0.60;;
60203;SDS011;46068;52.132;4.618;2023-08-08T12:09:48;4.80;;;0.60;;
60203;SDS011;46068;52.132;4.618;2023-08-08T12:12:14;2.08;;;0.63;;
60203;SDS011;46068;52.132;4.618;2023-08-08T12:14:42;3.08;;;0.60;;
60203;SDS011;46068;52.132;4.618;2023-08-08T12:17:09;2.58;;;0.73;;
60203;SDS011;46068;52.132;4.618;2023-08-08T12:19:35;2.38;;;0.73;;
60203;SDS011;46068;52.132;4.618;2023-08-08T12:22:02;1.88;;;0.60;;
60203;SDS011;46068;52.132;4.618;2023-08-08T12:24:28;2.25;;;0.70;;
60203;SDS011;46068;52.132;4.618;2023-08-08T12:26:54;2.10;;;0.55;;
60203;SDS011;46068;52.132;4.618;2023-08-08T12:29:20;3.92;;;0.55;;
60203;SDS011;46068;52.132;4.618;2023-08-08T12:31:48;2.38;;;0.70;;
60203;SDS011;46068;52.132;4.618;2023-08-08T12:34:14;2.47;;;0.68;;
60203;SDS011;46068;52.132;4.618;2023-08-08T12:36:40;1.85;;;0.77;;
60203;SDS011;46068;52.132;4.618;2023-08-08T12:39:07;2.58;;;0.70;;
60203;SDS011;46068;52.132;4.618;2023-08-08T12:41:35;2.33;;;0.65;;
60203;SDS011;46068;52.132;4.618;2023-08-08T12:44:01;5.22;;;0.70;;
60203;SDS011;46068;52.132;4.618;2023-08-08T12:46:28;3.67;;;0.68;;
60203;SDS011;46068;52.132;4.618;2023-08-08T12:48:56;3.92;;;0.60;;
60203;SDS011;46068;52.132;4.618;2023-08-08T12:51:22;2.15;;;0.70;;
60203;SDS011;46068;52.132;4.618;2023-08-08T12:53:49;4.85;;;1.00;;
60203;SDS011;46068;52.132;4.618;2023-08-08T12:56:15;3.58;;;0.80;;
60203;SDS011;46068;52.132;4.618;2023-08-08T12:58:41;3.40;;;0.70;;
60203;SDS011;46068;52.132;4.618;2023-08-08T13:01:08;5.13;;;0.90;;
60203;SDS011;46068;52.132;4.618;2023-08-08T13:03:34;1.70;;;0.70;;
60203;SDS011;46068;52.132;4.618;2023-08-08T13:06:02;2.28;;;0.70;;
60203;SDS011;46068;52.132;4.618;2023-08-08T13:08:28;3.42;;;0.70;;
60203;SDS011;46068;52.132;4.618;2023-08-08T13:10:55;3.38;;;0.63;;
60203;SDS011;46068;52.132;4.618;2023-08-08T13:13:21;8.05;;;0.73;;
60203;SDS011;46068;52.132;4.618;2023-08-08T13:15:50;2.85;;;0.70;;
60203;SDS011;46068;52.132;4.618;2023-08-08T13:18:16;2.33;;;0.70;;
60203;SDS011;46068;52.132;4.618;2023-08-08T13:20:42;2.78;;;0.77;;
60203;SDS011;46068;52.132;4.618;2023-08-08T13:23:10;2.05;;;0.70;;
60203;SDS011;46068;52.132;4.618;2023-08-08T13:25:36;1.38;;;0.70;;
60203;SDS011;46068;52.132;4.618;2023-08-08T13:28:03;2.95;;;0.60;;
60203;SDS011;46068;52.132;4.618;2023-08-08T13:30:29;3.45;;;0.65;;
60203;SDS011;46068;52.132;4.618;2023-08-08T13:32:55;2.20;;;0.60;;
60203;SDS011;46068;52.132;4.618;2023-08-08T13:35:22;2.47;;;0.68;;
60203;SDS011;46068;52.132;4.618;2023-08-08T13:37:48;5.60;;;0.70;;
60203;SDS011;46068;52.132;4.618;2023-08-08T13:40:18;5.15;;;0.70;;
60203;SDS011;46068;52.132;4.618;2023-08-08T13:42:44;5.40;;;0.80;;
60203;SDS011;46068;52.132;4.618;2023-08-08T13:45:13;3.42;;;0.88;;
60203;SDS011;46068;52.132;4.618;2023-08-08T13:47:39;4.13;;;0.70;;
60203;SDS011;46068;52.132;4.618;2023-08-08T13:50:06;3.55;;;0.70;;
60203;SDS011;46068;52.132;4.618;2023-08-08T13:52:32;2.72;;;0.77;;
60203;SDS011;46068;52.132;4.618;2023-08-08T13:54:59;1.83;;;0.60;;
60203;SDS011;46068;52.132;4.618;2023-08-08T13:57:26;3.47;;;0.47;;
60203;SDS011;46068;52.132;4.618;2023-08-08T13:59:53;4.70;;;0.85;;
60203;SDS011;46068;52.132;4.618;2023-08-08T14:02:20;3.75;;;0.85;;
60203;SDS011;46068;52.132;4.618;2023-08-08T14:04:46;5.28;;;1.13;;
60203;SDS011;46068;52.132;4.618;2023-08-08T14:07:12;5.65;;;1.02;;
60203;SDS011;46068;52.132;4.618;2023-08-08T14:09:39;2.33;;;0.70;;
60203;SDS011;46068;52.132;4.618;2023-08-08T14:12:05;4.25;;;0.80;;
60203;SDS011;46068;52.132;4.618;2023-08-08T14:14:33;3.22;;;0.88;;
60203;SDS011;46068;52.132;4.618;2023-08-08T14:16:59;2.17;;;1.08;;
60203;SDS011;46068;52.132;4.618;2023-08-08T14:19:25;2.95;;;0.90;;
60203;SDS011;46068;52.132;4.618;2023-08-08T14:21:52;2.08;;;0.80;;
60203;SDS011;46068;52.132;4.618;2023-08-08T14:24:18;3.85;;;0.88;;
60203;SDS011;46068;52.132;4.618;2023-08-08T14:26:45;2.60;;;0.90;;
60203;SDS011;46068;52.132;4.618;2023-08-08T14:29:12;4.47;;;1.00;;
60203;SDS011;46068;52.132;4.618;2023-08-08T14:31:39;3.42;;;1.05;;
60203;SDS011;46068;52.132;4.618;2023-08-08T14:34:06;6.90;;;0.98;;
60203;SDS011;46068;52.132;4.618;2023-08-08T14:36:32;2.88;;;0.93;;
60203;SDS011;46068;52.132;4.618;2023-08-08T14:38:58;2.33;;;0.90;;
60203;SDS011;46068;52.132;4.618;2023-08-08T14:41:25;2.15;;;0.63;;
60203;SDS011;46068;52.132;4.618;2023-08-08T14:43:51;4.15;;;0.93;;
60203;SDS011;46068;52.132;4.618;2023-08-08T14:46:17;4.55;;;1.13;;